Time;durP1;ratioP1;P1;durP2;ratioP2;P2;SDS_P1;SDS_P2;PMS_P1;PMS_P2;Temp;Humidity;BMP_temperature;BMP_pressure;BME280_temperature;BME280_humidity;BME280_pressure;Samples;Min_cycle;Max_cycle;Signal;HPM_P1;HPM_P2
2023/10/31 00:01:21;;;;;;;8.00;5.13;;;11.30;99.90;;;;;;5067676;28;20380;-76
2023/10/31 00:03:46;;;;;;;10.10;4.63;;;11.30;99.90;;;;;;5056500;28;20052;-76
2023/10/31 00:06:13;;;;;;;10.70;3.83;;;11.40;99.90;;;;;;5051765;28;20041;-77
2023/10/31 00:08:43;;;;;;;7.35;3.88;;;11.30;99.90;;;;;;5072369;28;20412;-77
2023/10/31 00:11:09;;;;;;;10.60;3.67;;;11.30;99.90;;;;;;5041174;28;20123;-77
2023/10/31 00:13:34;;;;;;;6.32;2.70;;;11.30;99.90;;;;;;5037999;28;20618;-77
2023/10/31 00:16:00;;;;;;;9.00;3.88;;;11.30;99.90;;;;;;5051085;28;20084;-76
2023/10/31 00:18:26;;;;;;;8.10;3.10;;;11.30;99.90;;;;;;5037488;28;20113;-77
2023/10/31 00:20:53;;;;;;;8.13;2.80;;;11.30;99.90;;;;;;5052649;28;20052;-76
2023/10/31 00:23:18;;;;;;;6.95;2.65;;;11.30;99.90;;;;;;5049193;28;20040;-76
2023/10/31 00:25:44;;;;;;;5.78;2.20;;;11.40;99.90;;;;;;5035827;28;20040;-77
2023/10/31 00:28:10;;;;;;;8.10;2.00;;;11.30;99.90;;;;;;5050983;28;20119;-75
2023/10/31 00:30:36;;;;;;;7.47;2.15;;;11.30;99.90;;;;;;5053658;28;20044;-77
2023/10/31 00:33:01;;;;;;;4.95;1.73;;;11.30;99.90;;;;;;5029419;28;20052;-77
2023/10/31 00:35:27;;;;;;;7.43;1.90;;;11.30;99.90;;;;;;5051909;28;20534;-76
2023/10/31 00:37:53;;;;;;;6.85;1.67;;;11.30;99.90;;;;;;5070253;28;20048;-76
2023/10/31 00:40:18;;;;;;;5.15;1.60;;;11.30;99.90;;;;;;5058800;28;20542;-76
2023/10/31 00:42:44;;;;;;;5.07;1.67;;;11.30;99.90;;;;;;5052130;28;20041;-76
2023/10/31 00:45:10;;;;;;;3.80;1.33;;;11.20;99.90;;;;;;5053461;28;20040;-76
2023/10/31 00:47:36;;;;;;;6.97;1.40;;;11.30;99.90;;;;;;5052154;28;20043;-76
2023/10/31 00:50:02;;;;;;;3.38;1.50;;;11.30;99.90;;;;;;5050815;28;20375;-76
2023/10/31 00:52:28;;;;;;;2.97;1.45;;;11.30;99.90;;;;;;5053498;28;20048;-76
2023/10/31 00:54:54;;;;;;;4.60;0.88;;;11.30;99.90;;;;;;5039709;28;20102;-76
2023/10/31 00:57:20;;;;;;;9.30;1.20;;;10.60;99.90;;;;;;5055421;28;20534;-76
2023/10/31 00:59:45;;;;;;;3.67;1.10;;;11.20;99.90;;;;;;5052771;28;20136;-76
2023/10/31 01:02:12;;;;;;;3.85;1.52;;;11.20;99.90;;;;;;5050916;28;20041;-76
2023/10/31 01:04:47;;;;;;;3.75;1.13;;;11.20;99.90;;;;;;5046505;28;20049;-76
2023/10/31 01:07:17;;;;;;;4.78;1.30;;;11.20;99.90;;;;;;5049651;28;20050;-76
2023/10/31 01:09:44;;;;;;;3.15;1.13;;;11.20;99.90;;;;;;5052985;28;20051;-76
2023/10/31 01:12:11;;;;;;;3.45;1.30;;;11.10;99.90;;;;;;5037819;28;20044;-77
2023/10/31 01:14:37;;;;;;;2.35;1.02;;;11.20;99.90;;;;;;5051152;28;20094;-76
2023/10/31 01:17:02;;;;;;;2.40;1.00;;;11.10;99.90;;;;;;5053129;28;20040;-76
2023/10/31 01:19:28;;;;;;;2.28;0.80;;;11.10;99.90;;;;;;5051588;28;20048;-78
2023/10/31 01:21:54;;;;;;;4.72;0.82;;;11.10;99.90;;;;;;5069893;28;20044;-76
2023/10/31 01:24:20;;;;;;;2.13;0.80;;;11.10;99.90;;;;;;5052423;28;20036;-76
2023/10/31 01:26:45;;;;;;;3.00;0.80;;;11.10;99.90;;;;;;5059627;28;20813;-76
2023/10/31 01:29:11;;;;;;;3.75;0.70;;;11.10;99.90;;;;;;5068479;28;20045;-76
2023/10/31 01:31:37;;;;;;;3.03;0.70;;;11.10;99.90;;;;;;5045537;28;20102;-76
2023/10/31 01:34:03;;;;;;;4.03;0.65;;;11.10;99.90;;;;;;5054101;28;20037;-76
2023/10/31 01:36:28;;;;;;;2.45;0.50;;;11.10;99.90;;;;;;5024276;28;20040;-76
2023/10/31 01:38:54;;;;;;;3.45;0.60;;;11.00;99.90;;;;;;5010557;28;20044;-76
2023/10/31 01:41:20;;;;;;;2.75;0.68;;;11.10;99.90;;;;;;5043804;28;20040;-76
2023/10/31 01:43:45;;;;;;;7.68;0.80;;;11.00;99.90;;;;;;5053915;28;20419;-76
2023/10/31 01:46:11;;;;;;;1.95;0.45;;;11.10;99.90;;;;;;5052839;28;20045;-75
2023/10/31 01:48:37;;;;;;;1.52;0.55;;;11.10;99.90;;;;;;5053234;28;20041;-76
2023/10/31 01:51:04;;;;;;;2.30;0.50;;;11.00;99.90;;;;;;5071823;28;20113;-76
2023/10/31 01:53:35;;;;;;;3.28;0.50;;;11.00;99.90;;;;;;5053818;28;20053;-75
2023/10/31 01:56:02;;;;;;;4.30;0.65;;;11.00;99.90;;;;;;5036984;28;20094;-75
2023/10/31 01:58:34;;;;;;;5.32;0.68;;;10.90;99.90;;;;;;5035739;28;20053;-76
2023/10/31 02:01:03;;;;;;;3.60;0.65;;;10.90;99.90;;;;;;5037974;28;20471;-74
2023/10/31 02:03:29;;;;;;;5.93;0.70;;;10.90;99.90;;;;;;5053473;28;20511;-75
2023/10/31 02:05:57;;;;;;;6.72;0.68;;;10.80;99.90;;;;;;5053815;28;20488;-76
2023/10/31 02:08:23;;;;;;;7.15;0.80;;;10.80;99.90;;;;;;5053331;28;20476;-76
2023/10/31 02:10:49;;;;;;;2.97;0.65;;;10.80;99.90;;;;;;5060015;28;20104;-76
2023/10/31 02:13:17;;;;;;;3.53;0.80;;;10.80;99.90;;;;;;5058967;28;20041;-75
2023/10/31 02:15:42;;;;;;;6.10;0.90;;;10.80;99.90;;;;;;5070269;28;20051;-77
2023/10/31 02:18:09;;;;;;;8.60;1.40;;;10.80;99.90;;;;;;5074269;28;20090;-75
2023/10/31 02:20:35;;;;;;;4.47;1.15;;;10.80;99.90;;;;;;5075206;28;20384;-76
2023/10/31 02:23:05;;;;;;;3.92;1.50;;;10.80;99.90;;;;;;5056682;28;20052;-77
2023/10/31 02:25:31;;;;;;;4.90;1.38;;;10.80;99.90;;;;;;5075269;28;20048;-76
2023/10/31 02:27:56;;;;;;;6.95;0.90;;;10.80;99.90;;;;;;5057293;28;20037;-76
2023/10/31 02:30:23;;;;;;;4.22;1.10;;;10.70;99.90;;;;;;5081276;28;20065;-76
2023/10/31 02:32:48;;;;;;;4.60;1.60;;;10.70;99.90;;;;;;5055828;28;20045;-75
2023/10/31 02:35:17;;;;;;;3.80;1.10;;;10.70;99.90;;;;;;5056159;28;20044;-76
2023/10/31 02:37:44;;;;;;;6.30;1.10;;;10.60;99.90;;;;;;5040179;28;20388;-76
2023/10/31 02:40:10;;;;;;;5.32;1.42;;;10.60;99.90;;;;;;5073492;28;20404;-75
2023/10/31 02:42:36;;;;;;;4.35;0.93;;;10.60;99.90;;;;;;5059196;28;20044;-76
2023/10/31 02:45:03;;;;;;;7.32;1.02;;;10.60;99.90;;;;;;5087163;28;20128;-77
2023/10/31 02:47:29;;;;;;;5.68;1.08;;;10.60;99.90;;;;;;5057144;28;20102;-76
2023/10/31 02:49:55;;;;;;;4.38;0.90;;;10.60;99.90;;;;;;5040517;28;20434;-75
2023/10/31 02:52:20;;;;;;;3.60;0.75;;;10.50;99.90;;;;;;5057053;28;20049;-74
2023/10/31 02:54:46;;;;;;;3.15;0.70;;;10.50;99.90;;;;;;5074498;28;20045;-76
2023/10/31 02:57:12;;;;;;;6.25;1.08;;;10.50;99.90;;;;;;5063544;28;20036;-75
2023/10/31 02:59:37;;;;;;;7.50;0.70;;;10.50;99.90;;;;;;5053395;28;20050;-76
2023/10/31 03:02:03;;;;;;;4.07;0.60;;;10.40;99.90;;;;;;5056648;28;20041;-76
2023/10/31 03:04:29;;;;;;;4.40;1.20;;;10.50;99.90;;;;;;5053946;28;20142;-76
2023/10/31 03:06:55;;;;;;;5.72;1.20;;;10.50;99.90;;;;;;5056903;28;20044;-76
2023/10/31 03:09:21;;;;;;;5.45;1.08;;;10.40;99.90;;;;;;5056783;28;20052;-76
2023/10/31 03:11:46;;;;;;;4.13;1.00;;;10.40;99.90;;;;;;5055828;28;20392;-76
2023/10/31 03:14:12;;;;;;;5.90;1.10;;;10.40;99.90;;;;;;5024060;28;20452;-76
2023/10/31 03:16:38;;;;;;;4.47;1.00;;;10.40;99.90;;;;;;5062278;28;20055;-76
2023/10/31 03:19:05;;;;;;;7.93;1.60;;;10.50;99.90;;;;;;5056240;28;20043;-76
2023/10/31 03:21:31;;;;;;;4.90;1.35;;;10.40;99.90;;;;;;5056612;28;20132;-76
2023/10/31 03:23:57;;;;;;;5.05;1.35;;;10.40;99.90;;;;;;5039177;28;20131;-75
2023/10/31 03:26:23;;;;;;;5.80;1.92;;;10.40;99.90;;;;;;5061337;28;20566;-76
2023/10/31 03:28:48;;;;;;;7.90;2.10;;;10.50;99.90;;;;;;5063464;28;20045;-76
2023/10/31 03:31:15;;;;;;;7.45;2.10;;;10.40;99.90;;;;;;5057844;28;20095;-76
2023/10/31 03:33:41;;;;;;;7.90;2.08;;;10.40;99.90;;;;;;5074144;28;20052;-76
2023/10/31 03:36:08;;;;;;;8.43;3.15;;;10.40;99.90;;;;;;5055972;28;20045;-76
2023/10/31 03:38:34;;;;;;;9.35;2.88;;;10.40;99.90;;;;;;5054867;28;20063;-76
2023/10/31 03:41:00;;;;;;;9.07;3.17;;;10.40;99.90;;;;;;5055870;28;20513;-76
2023/10/31 03:43:26;;;;;;;8.27;2.88;;;10.40;99.90;;;;;;5055369;28;20557;-76
2023/10/31 03:45:52;;;;;;;6.25;2.78;;;10.40;99.90;;;;;;5055905;28;20040;-75
2023/10/31 03:48:18;;;;;;;6.65;2.72;;;10.40;99.90;;;;;;5058929;28;20407;-75
2023/10/31 03:50:44;;;;;;;7.65;3.58;;;10.40;99.90;;;;;;5056115;28;20522;-76
2023/10/31 03:53:10;;;;;;;10.18;3.40;;;10.40;99.90;;;;;;5061442;28;20044;-75
2023/10/31 03:55:36;;;;;;;11.55;3.65;;;10.40;99.90;;;;;;5055404;28;20052;-75
2023/10/31 03:58:02;;;;;;;7.53;3.45;;;10.50;99.90;;;;;;5073823;28;20101;-76
2023/10/31 04:00:30;;;;;;;7.65;3.75;;;10.40;99.90;;;;;;5072441;28;20051;-77
2023/10/31 04:02:56;;;;;;;9.90;4.03;;;10.40;99.90;;;;;;5054673;28;20044;-76
2023/10/31 04:05:22;;;;;;;11.15;3.60;;;10.40;99.90;;;;;;5067883;28;20040;-75
2023/10/31 04:07:49;;;;;;;9.02;3.90;;;10.40;99.90;;;;;;5066949;28;20036;-76
2023/10/31 04:10:15;;;;;;;7.05;3.03;;;10.40;99.90;;;;;;5054448;28;20044;-76
2023/10/31 04:12:41;;;;;;;7.95;3.53;;;10.40;99.90;;;;;;5063194;28;20063;-76
2023/10/31 04:15:08;;;;;;;7.22;3.72;;;10.40;99.90;;;;;;5051741;28;20098;-76
2023/10/31 04:17:33;;;;;;;6.97;3.05;;;10.40;99.90;;;;;;5062183;28;20140;-76
2023/10/31 04:19:59;;;;;;;6.53;2.70;;;10.50;99.90;;;;;;5038276;28;20548;-76
2023/10/31 04:22:25;;;;;;;6.57;2.60;;;10.40;99.90;;;;;;5054656;28;20097;-76
2023/10/31 04:24:50;;;;;;;6.57;2.50;;;10.50;99.90;;;;;;5055134;28;20400;-76
2023/10/31 04:27:16;;;;;;;6.65;2.42;;;10.50;99.90;;;;;;5038741;28;20055;-77
2023/10/31 04:29:42;;;;;;;6.88;3.08;;;10.40;99.90;;;;;;5040556;28;20047;-76
2023/10/31 04:32:07;;;;;;;7.53;2.35;;;10.40;99.90;;;;;;5029224;28;20441;-76
2023/10/31 04:34:33;;;;;;;5.53;2.30;;;10.50;99.90;;;;;;5067821;28;20044;-76
2023/10/31 04:36:58;;;;;;;6.43;2.65;;;10.50;99.90;;;;;;5043630;28;20047;-76
2023/10/31 04:39:24;;;;;;;5.45;2.25;;;10.50;99.90;;;;;;5054199;28;20055;-76
2023/10/31 04:41:50;;;;;;;6.35;2.50;;;10.50;99.90;;;;;;5054726;28;20043;-76
2023/10/31 04:44:16;;;;;;;6.03;2.22;;;10.40;99.90;;;;;;5054562;28;20040;-76
2023/10/31 04:46:42;;;;;;;6.57;2.63;;;10.50;99.90;;;;;;5071910;28;20487;-76
2023/10/31 04:49:08;;;;;;;5.72;1.90;;;10.50;99.90;;;;;;5072594;28;20044;-76
2023/10/31 04:51:35;;;;;;;4.88;1.60;;;10.60;99.90;;;;;;5072544;28;20098;-76
2023/10/31 04:54:01;;;;;;;7.43;2.25;;;10.50;99.90;;;;;;5072952;28;20458;-78
2023/10/31 04:56:26;;;;;;;5.57;2.00;;;10.50;99.90;;;;;;5054352;28;20056;-76
2023/10/31 04:58:52;;;;;;;7.00;1.92;;;10.50;99.90;;;;;;5071789;28;20080;-76
2023/10/31 05:01:19;;;;;;;6.82;1.73;;;10.50;99.90;;;;;;5080810;28;20093;-77
2023/10/31 05:03:44;;;;;;;5.60;1.98;;;10.50;99.90;;;;;;5077980;28;20787;-76
2023/10/31 05:06:10;;;;;;;4.85;1.52;;;10.50;99.90;;;;;;5054836;28;20050;-76
2023/10/31 05:08:36;;;;;;;4.68;1.40;;;10.40;99.90;;;;;;5060472;28;20386;-77
2023/10/31 05:11:01;;;;;;;4.82;1.30;;;10.50;99.90;;;;;;5054883;28;20048;-77
2023/10/31 05:13:27;;;;;;;3.88;1.55;;;10.50;99.90;;;;;;5072016;28;20102;-76
2023/10/31 05:15:53;;;;;;;4.82;1.15;;;10.50;99.90;;;;;;5071125;28;20047;-76
2023/10/31 05:18:19;;;;;;;6.00;1.33;;;10.50;99.90;;;;;;5051380;28;20430;-76
2023/10/31 05:20:45;;;;;;;3.40;0.98;;;10.50;99.90;;;;;;5065327;28;20094;-76
2023/10/31 05:23:11;;;;;;;4.30;0.90;;;10.50;99.90;;;;;;5053457;28;20793;-76
2023/10/31 05:25:37;;;;;;;3.95;1.15;;;10.50;99.90;;;;;;5072588;28;20051;-76
2023/10/31 05:28:03;;;;;;;3.33;0.90;;;10.50;99.90;;;;;;5071406;28;20468;-76
2023/10/31 05:30:29;;;;;;;3.58;0.70;;;10.50;99.90;;;;;;5072208;28;20491;-77
2023/10/31 05:32:55;;;;;;;4.97;0.98;;;10.50;99.90;;;;;;5071824;28;20072;-77
2023/10/31 05:35:21;;;;;;;2.22;0.77;;;10.50;99.90;;;;;;5071117;28;20044;-76
2023/10/31 05:37:47;;;;;;;3.85;1.20;;;10.50;99.90;;;;;;5051977;28;20044;-76
2023/10/31 05:40:14;;;;;;;3.78;0.77;;;10.60;99.90;;;;;;5053409;28;20057;-76
2023/10/31 05:42:40;;;;;;;5.10;1.15;;;10.50;99.90;;;;;;5071465;28;20535;-76
2023/10/31 05:45:10;;;;;;;3.78;0.80;;;10.50;99.90;;;;;;5071641;28;20040;-76
2023/10/31 05:47:35;;;;;;;2.45;0.70;;;10.50;99.90;;;;;;5053020;28;20065;-76
2023/10/31 05:50:03;;;;;;;4.47;0.98;;;10.50;99.90;;;;;;5052949;28;20052;-78
2023/10/31 05:52:30;;;;;;;3.92;0.80;;;10.40;99.90;;;;;;5038256;28;20079;-77
2023/10/31 05:54:56;;;;;;;2.85;0.73;;;10.40;99.90;;;;;;5069416;28;20044;-76
2023/10/31 05:57:24;;;;;;;1.55;0.63;;;10.40;99.90;;;;;;5071023;28;20157;-78
2023/10/31 05:59:53;;;;;;;1.40;0.57;;;10.50;99.90;;;;;;5058404;28;20053;-80
2023/10/31 06:02:19;;;;;;;3.25;0.57;;;10.40;99.90;;;;;;5051834;28;20047;-78
2023/10/31 06:04:45;;;;;;;1.60;0.50;;;10.40;99.90;;;;;;5047962;28;20042;-77
2023/10/31 06:07:13;;;;;;;1.70;0.70;;;10.40;99.90;;;;;;5038388;28;20123;-78
2023/10/31 06:09:40;;;;;;;3.42;1.00;;;10.40;99.90;;;;;;5058889;28;20464;-76
2023/10/31 06:12:06;;;;;;;5.07;0.93;;;10.40;99.90;;;;;;5059685;28;20044;-78
2023/10/31 06:14:32;;;;;;;3.75;0.70;;;10.40;99.90;;;;;;5057817;28;20040;-77
2023/10/31 06:16:59;;;;;;;5.18;0.85;;;10.40;99.90;;;;;;5050470;28;20053;-77
2023/10/31 06:19:25;;;;;;;2.85;0.90;;;10.40;99.90;;;;;;5038798;28;20044;-78
2023/10/31 06:21:52;;;;;;;2.50;0.85;;;10.50;99.90;;;;;;5066713;28;20124;-78
2023/10/31 06:24:17;;;;;;;3.85;0.70;;;10.40;99.90;;;;;;5063543;28;20106;-78
2023/10/31 06:26:43;;;;;;;3.28;0.90;;;10.40;99.90;;;;;;5056828;28;20044;-76
2023/10/31 06:29:09;;;;;;;2.92;0.90;;;10.40;99.90;;;;;;5038217;28;20404;-76
2023/10/31 06:31:34;;;;;;;4.93;0.95;;;10.40;99.90;;;;;;5054450;28;20480;-76
2023/10/31 06:34:01;;;;;;;1.73;0.88;;;10.40;99.90;;;;;;5062179;28;20071;-76
2023/10/31 06:36:27;;;;;;;4.78;1.38;;;10.40;99.90;;;;;;5047139;28;20044;-76
2023/10/31 06:38:53;;;;;;;2.90;1.73;;;10.40;99.90;;;;;;5069198;28;20394;-76
2023/10/31 06:41:18;;;;;;;6.03;1.95;;;10.40;99.90;;;;;;5057652;28;20070;-79
2023/10/31 06:43:44;;;;;;;8.25;2.78;;;10.40;99.90;;;;;;5062704;28;20090;-79
2023/10/31 06:46:11;;;;;;;4.85;2.30;;;10.40;99.90;;;;;;5065443;28;20102;-77
2023/10/31 06:48:37;;;;;;;6.55;2.55;;;10.40;99.90;;;;;;5042334;28;20107;-77
2023/10/31 06:51:03;;;;;;;6.20;3.10;;;10.40;99.90;;;;;;5057999;28;20464;-78
2023/10/31 06:53:29;;;;;;;7.15;3.50;;;10.40;99.90;;;;;;5057001;28;20408;-77
2023/10/31 06:55:55;;;;;;;6.88;3.20;;;10.40;99.90;;;;;;5053631;28;20139;-77
2023/10/31 06:58:20;;;;;;;5.45;2.97;;;10.40;99.90;;;;;;5057413;28;20824;-77
2023/10/31 07:00:47;;;;;;;10.95;2.92;;;10.40;99.90;;;;;;5056580;28;20059;-78
2023/10/31 07:03:15;;;;;;;6.30;3.45;;;10.40;99.90;;;;;;5055742;28;20098;-76
2023/10/31 07:05:41;;;;;;;5.57;3.53;;;10.40;99.90;;;;;;5055105;28;20048;-78
2023/10/31 07:08:07;;;;;;;5.57;3.40;;;10.40;99.90;;;;;;5055092;28;20048;-79
2023/10/31 07:10:33;;;;;;;5.43;3.40;;;10.40;99.90;;;;;;5073768;28;20093;-76
2023/10/31 07:12:59;;;;;;;7.93;3.92;;;10.40;99.90;;;;;;5055844;28;20440;-79
2023/10/31 07:15:25;;;;;;;7.40;3.70;;;10.60;99.90;;;;;;5072421;28;20091;-79
2023/10/31 07:17:51;;;;;;;6.93;3.95;;;10.50;99.90;;;;;;5073128;28;20040;-79
2023/10/31 07:20:17;;;;;;;7.15;4.20;;;10.40;99.90;;;;;;5073774;28;20050;-79
2023/10/31 07:22:43;;;;;;;8.15;3.97;;;10.40;99.90;;;;;;5079335;28;20038;-79
2023/10/31 07:25:09;;;;;;;7.47;4.38;;;10.50;99.90;;;;;;5079506;28;20048;-79
2023/10/31 07:27:35;;;;;;;7.57;4.30;;;10.40;99.90;;;;;;5055049;28;20109;-78
2023/10/31 07:30:01;;;;;;;5.97;3.60;;;10.50;99.90;;;;;;5072894;28;20052;-77
2023/10/31 07:32:27;;;;;;;8.18;4.05;;;10.50;99.90;;;;;;5073892;28;20083;-78
2023/10/31 07:34:53;;;;;;;11.80;4.78;;;10.50;99.90;;;;;;5055784;28;20077;-78
2023/10/31 07:37:20;;;;;;;6.30;3.70;;;10.50;99.90;;;;;;5039811;28;20041;-78
2023/10/31 07:39:46;;;;;;;8.13;4.05;;;10.50;99.90;;;;;;5055653;28;20048;-78
2023/10/31 07:42:13;;;;;;;7.40;4.10;;;10.50;99.90;;;;;;5022422;28;20494;-78
2023/10/31 07:44:42;;;;;;;8.07;4.53;;;10.50;99.90;;;;;;5073906;28;20044;-79
2023/10/31 07:47:08;;;;;;;7.82;4.38;;;10.50;99.90;;;;;;5039343;28;20474;-81
2023/10/31 07:49:34;;;;;;;7.03;4.32;;;10.50;99.90;;;;;;5039239;28;20560;-80
2023/10/31 07:52:00;;;;;;;8.00;4.07;;;10.60;99.90;;;;;;5073875;28;20056;-81
2023/10/31 07:54:25;;;;;;;6.70;3.60;;;10.60;99.90;;;;;;5072061;28;20082;-81
2023/10/31 07:56:51;;;;;;;10.73;3.35;;;10.50;99.90;;;;;;5071677;28;20044;-80
2023/10/31 07:59:17;;;;;;;6.88;3.83;;;10.60;99.90;;;;;;5073219;28;20461;-81
2023/10/31 08:01:42;;;;;;;7.28;3.35;;;10.50;99.90;;;;;;5056253;28;20452;-81
2023/10/31 08:04:08;;;;;;;5.53;2.35;;;10.60;99.90;;;;;;5054519;28;20098;-80
2023/10/31 08:06:33;;;;;;;6.50;2.67;;;10.60;99.90;;;;;;5073607;28;20052;-81
2023/10/31 08:08:59;;;;;;;8.23;2.42;;;10.60;99.90;;;;;;5055934;28;20088;-80
2023/10/31 08:11:25;;;;;;;7.68;2.63;;;10.60;99.90;;;;;;5073661;28;20060;-81
2023/10/31 08:13:52;;;;;;;9.48;2.22;;;10.70;99.90;;;;;;5072606;28;20040;-80
2023/10/31 08:16:19;;;;;;;7.07;1.83;;;10.70;99.90;;;;;;5055328;28;20052;-78
2023/10/31 08:18:45;;;;;;;8.63;1.98;;;10.70;99.90;;;;;;5078529;28;20047;-76
2023/10/31 08:21:12;;;;;;;5.50;1.50;;;10.70;99.90;;;;;;5080299;28;20060;-75
2023/10/31 08:23:37;;;;;;;4.75;1.38;;;10.70;99.90;;;;;;5073061;28;20040;-73
2023/10/31 08:26:03;;;;;;;5.20;1.20;;;10.70;99.90;;;;;;5055416;28;20037;-73
2023/10/31 08:28:30;;;;;;;5.85;1.13;;;10.80;99.90;;;;;;5055135;28;20049;-73
2023/10/31 08:30:56;;;;;;;6.28;1.17;;;10.80;99.90;;;;;;5054492;28;20044;-74
2023/10/31 08:33:22;;;;;;;3.50;1.25;;;10.80;99.90;;;;;;5072583;28;20048;-72
2023/10/31 08:35:48;;;;;;;4.22;0.90;;;10.80;99.90;;;;;;5072523;28;20063;-72
2023/10/31 08:38:14;;;;;;;5.72;1.23;;;10.80;99.90;;;;;;5055237;28;20353;-73
2023/10/31 08:40:40;;;;;;;6.97;1.23;;;10.90;99.90;;;;;;5071799;28;20106;-72
2023/10/31 08:43:06;;;;;;;4.60;1.10;;;10.90;99.90;;;;;;5054489;28;20655;-72
2023/10/31 08:45:33;;;;;;;5.45;1.00;;;10.90;99.90;;;;;;5072727;28;20051;-73
2023/10/31 08:47:59;;;;;;;3.90;0.60;;;11.00;99.90;;;;;;5055293;28;20525;-73
2023/10/31 08:50:24;;;;;;;2.50;0.65;;;10.90;99.90;;;;;;5072508;28;20132;-73
2023/10/31 08:52:50;;;;;;;2.85;0.60;;;10.90;99.90;;;;;;5054400;28;20048;-72
2023/10/31 08:55:16;;;;;;;3.45;0.68;;;10.90;99.90;;;;;;5046600;28;20049;-73
2023/10/31 08:57:41;;;;;;;1.55;0.63;;;10.90;99.90;;;;;;5034847;28;20048;-73
2023/10/31 09:00:08;;;;;;;2.63;0.60;;;10.90;99.90;;;;;;5035258;28;20045;-73
2023/10/31 09:02:33;;;;;;;3.08;0.43;;;10.90;99.90;;;;;;5034755;28;20119;-73
2023/10/31 09:04:59;;;;;;;2.92;0.60;;;10.90;99.90;;;;;;5035263;28;20131;-72
2023/10/31 09:07:25;;;;;;;1.73;0.43;;;10.90;99.90;;;;;;5057044;28;20040;-72
2023/10/31 09:09:50;;;;;;;1.65;0.40;;;11.00;99.90;;;;;;5054529;28;20472;-72
2023/10/31 09:12:16;;;;;;;2.85;0.40;;;11.00;99.90;;;;;;5054386;28;20491;-72
2023/10/31 09:14:42;;;;;;;0.77;0.22;;;11.00;99.90;;;;;;5057306;28;20483;-73
2023/10/31 09:17:07;;;;;;;2.53;0.50;;;11.00;99.90;;;;;;5057838;28;20100;-73
2023/10/31 09:19:33;;;;;;;2.35;0.60;;;11.00;99.90;;;;;;5053883;28;20119;-71
2023/10/31 09:21:59;;;;;;;7.18;0.70;;;11.00;99.90;;;;;;5054245;28;20414;-72
2023/10/31 09:24:24;;;;;;;6.65;0.98;;;11.00;99.90;;;;;;5054536;28;20045;-73
2023/10/31 09:26:50;;;;;;;9.63;1.55;;;11.10;99.90;;;;;;5072854;28;20048;-74
2023/10/31 09:29:16;;;;;;;7.43;0.70;;;11.20;99.90;;;;;;5063837;28;20080;-73
2023/10/31 09:31:41;;;;;;;5.03;0.68;;;11.30;99.90;;;;;;5067443;28;20040;-74
2023/10/31 09:34:07;;;;;;;8.68;0.73;;;11.30;99.90;;;;;;5058465;28;20498;-74
2023/10/31 09:36:34;;;;;;;5.93;0.80;;;11.40;99.90;;;;;;5058639;28;20048;-74
2023/10/31 09:39:00;;;;;;;6.82;0.60;;;11.40;99.90;;;;;;5070186;28;20041;-74
2023/10/31 09:41:26;;;;;;;3.85;0.50;;;11.50;99.90;;;;;;5075446;28;20067;-73
2023/10/31 09:43:52;;;;;;;5.30;0.60;;;11.40;99.90;;;;;;5057067;28;20048;-75
2023/10/31 09:46:18;;;;;;;4.97;0.50;;;11.40;99.90;;;;;;5058267;28;20048;-73
2023/10/31 09:48:44;;;;;;;3.13;0.50;;;11.50;99.90;;;;;;5058029;28;20057;-73
2023/10/31 09:51:11;;;;;;;1.77;0.38;;;11.40;99.90;;;;;;5058133;28;20048;-73
2023/10/31 09:53:40;;;;;;;4.70;0.40;;;11.40;99.90;;;;;;5039062;28;20407;-73
2023/10/31 09:56:07;;;;;;;1.83;0.32;;;11.40;99.90;;;;;;5057914;28;20052;-74
2023/10/31 09:58:33;;;;;;;4.07;0.60;;;11.40;99.90;;;;;;5049466;28;20091;-73
2023/10/31 10:00:59;;;;;;;5.35;0.60;;;11.50;99.90;;;;;;5057522;28;20044;-73
2023/10/31 10:03:24;;;;;;;2.75;0.35;;;11.40;99.90;;;;;;5057517;28;20036;-73
2023/10/31 10:05:51;;;;;;;1.80;0.25;;;11.40;99.90;;;;;;5057326;28;20412;-73
2023/10/31 10:08:17;;;;;;;1.77;0.20;;;11.40;99.90;;;;;;5073651;28;20045;-75
2023/10/31 10:10:42;;;;;;;2.55;0.30;;;11.40;99.90;;;;;;5057543;28;20047;-74
2023/10/31 10:13:09;;;;;;;2.65;0.40;;;11.40;99.90;;;;;;5063283;28;20060;-73
2023/10/31 10:15:54;;;;;;;2.03;0.30;;;11.40;99.90;;;;;;5057215;28;20068;-73
2023/10/31 10:18:26;;;;;;;3.72;0.60;;;11.50;99.90;;;;;;5075411;28;20044;-73
2023/10/31 10:21:02;;;;;;;2.63;0.30;;;11.50;99.90;;;;;;5057129;28;21176;-73
2023/10/31 10:23:29;;;;;;;3.03;0.35;;;11.50;99.90;;;;;;5056733;28;20193;-73
2023/10/31 10:25:57;;;;;;;5.00;0.38;;;11.60;99.90;;;;;;5057380;28;20040;-73
2023/10/31 10:28:24;;;;;;;3.83;0.50;;;11.60;99.90;;;;;;5057584;28;20048;-73
2023/10/31 10:30:51;;;;;;;2.90;0.40;;;11.60;99.90;;;;;;5056480;28;20102;-73
2023/10/31 10:33:18;;;;;;;3.88;0.40;;;11.60;99.90;;;;;;5074782;28;20045;-74
2023/10/31 10:35:44;;;;;;;3.38;0.40;;;11.70;99.90;;;;;;5064207;28;20490;-76
2023/10/31 10:38:18;;;;;;;6.72;0.40;;;11.70;99.90;;;;;;5056412;28;20472;-73
2023/10/31 10:40:48;;;;;;;1.90;0.38;;;11.70;99.90;;;;;;5057602;28;20127;-73
2023/10/31 10:43:17;;;;;;;3.05;0.45;;;11.70;99.90;;;;;;5040105;28;20132;-73
2023/10/31 10:45:46;;;;;;;1.73;0.73;;;11.70;99.90;;;;;;5057493;28;20068;-73
2023/10/31 10:48:13;;;;;;;4.20;0.75;;;11.80;99.90;;;;;;5028664;28;20052;-73
2023/10/31 10:50:42;;;;;;;6.18;0.40;;;11.80;99.90;;;;;;5057504;28;20239;-73
2023/10/31 10:53:25;;;;;;;4.57;0.60;;;11.80;99.90;;;;;;5057586;28;20076;-74
2023/10/31 10:55:55;;;;;;;4.28;0.70;;;11.80;99.90;;;;;;5057728;28;20487;-73
2023/10/31 10:58:39;;;;;;;3.58;0.40;;;11.90;99.90;;;;;;5060410;28;20055;-74
2023/10/31 11:01:05;;;;;;;4.00;0.57;;;12.10;99.90;;;;;;5064454;28;20068;-73
2023/10/31 11:03:32;;;;;;;2.58;0.50;;;12.10;99.90;;;;;;5057281;28;20127;-75
2023/10/31 11:05:59;;;;;;;5.20;0.70;;;12.10;99.90;;;;;;5057411;28;20045;-73
2023/10/31 11:08:25;;;;;;;4.10;0.40;;;12.20;99.90;;;;;;5066721;28;20434;-73
2023/10/31 11:10:53;;;;;;;2.15;0.30;;;12.10;99.90;;;;;;5057303;28;20495;-73
2023/10/31 11:13:19;;;;;;;2.67;0.50;;;12.10;99.90;;;;;;5055177;28;20060;-73
2023/10/31 11:15:47;;;;;;;5.55;0.50;;;12.10;99.90;;;;;;5074113;28;20055;-73
2023/10/31 11:18:13;;;;;;;4.40;0.50;;;12.10;99.90;;;;;;5068090;28;20140;-73
2023/10/31 11:20:40;;;;;;;2.60;0.40;;;12.10;99.90;;;;;;5056599;28;20048;-73
2023/10/31 11:23:06;;;;;;;4.80;0.70;;;12.10;99.90;;;;;;5056279;28;20040;-73
2023/10/31 11:25:32;;;;;;;6.03;0.68;;;12.00;99.90;;;;;;5056287;28;20052;-73
2023/10/31 11:28:17;;;;;;;5.32;0.75;;;12.00;99.90;;;;;;5056846;28;20048;-73
2023/10/31 11:30:45;;;;;;;4.25;0.43;;;12.00;99.90;;;;;;5056716;28;20480;-73
2023/10/31 11:33:15;;;;;;;2.72;0.73;;;12.00;99.90;;;;;;5058689;28;20051;-73
2023/10/31 11:35:41;;;;;;;5.53;0.90;;;12.00;99.90;;;;;;5056361;28;20392;-73
2023/10/31 11:38:10;;;;;;;4.47;0.80;;;12.00;99.90;;;;;;5075536;28;20484;-73
2023/10/31 11:40:57;;;;;;;4.78;0.52;;;12.00;99.90;;;;;;5073481;28;20052;-73
2023/10/31 11:43:23;;;;;;;3.03;0.60;;;12.10;99.90;;;;;;5044175;28;20052;-73
2023/10/31 11:45:48;;;;;;;4.28;0.50;;;12.10;99.90;;;;;;5054796;28;20045;-73
2023/10/31 11:48:15;;;;;;;2.92;0.47;;;12.20;99.90;;;;;;5054667;28;20495;-73
2023/10/31 11:50:41;;;;;;;4.97;0.82;;;12.20;99.90;;;;;;5055201;28;20053;-73
2023/10/31 11:53:11;;;;;;;4.93;0.63;;;12.30;99.90;;;;;;5055582;28;20032;-73
2023/10/31 11:55:40;;;;;;;4.82;0.52;;;12.30;99.90;;;;;;5055258;28;20052;-73
2023/10/31 11:58:16;;;;;;;4.32;0.73;;;12.20;99.90;;;;;;5050439;28;20037;-73
2023/10/31 12:00:42;;;;;;;1.65;0.40;;;12.30;99.90;;;;;;5036111;28;20080;-74
2023/10/31 12:03:08;;;;;;;4.90;0.57;;;12.20;99.90;;;;;;5048768;28;20072;-73
2023/10/31 12:05:33;;;;;;;4.45;0.57;;;12.20;99.90;;;;;;5065787;28;20120;-73
2023/10/31 12:07:59;;;;;;;2.83;0.60;;;12.20;99.90;;;;;;5055117;28;20032;-73
2023/10/31 12:10:30;;;;;;;3.95;0.50;;;12.10;99.90;;;;;;5056376;28;20159;-73
2023/10/31 12:12:58;;;;;;;3.78;0.57;;;12.20;99.90;;;;;;5055772;28;20044;-73
2023/10/31 12:15:24;;;;;;;4.53;0.60;;;12.20;99.90;;;;;;5055219;28;20106;-73
2023/10/31 12:17:50;;;;;;;4.95;0.70;;;12.20;99.90;;;;;;5055937;28;20117;-73
2023/10/31 12:20:16;;;;;;;4.82;0.82;;;12.20;99.90;;;;;;5055228;28;20048;-73
2023/10/31 12:22:42;;;;;;;7.00;0.80;;;12.30;99.90;;;;;;5054579;28;20131;-74
2023/10/31 12:25:09;;;;;;;8.52;0.98;;;12.30;99.90;;;;;;5073599;28;20045;-73
2023/10/31 12:27:50;;;;;;;4.30;1.00;;;12.40;99.90;;;;;;5054381;28;20446;-73
2023/10/31 12:30:21;;;;;;;5.53;0.88;;;12.40;99.90;;;;;;5054369;28;20131;-73
2023/10/31 12:32:55;;;;;;;4.55;1.10;;;12.40;99.90;;;;;;5070800;28;20526;-72
2023/10/31 12:35:23;;;;;;;4.53;0.88;;;12.40;99.90;;;;;;5049083;28;20087;-74
2023/10/31 12:37:49;;;;;;;4.38;0.85;;;12.40;99.90;;;;;;5066260;28;20048;-75
2023/10/31 12:40:17;;;;;;;3.35;0.60;;;12.40;99.90;;;;;;5053854;28;20526;-76
2023/10/31 12:42:45;;;;;;;3.95;1.00;;;12.40;99.90;;;;;;5053992;28;20040;-76